createdAt,value
2018-10-03T00:01:54.980Z,100581.91
2018-10-03T00:04:22.537Z,100579.87
2018-10-03T00:06:50.154Z,100587.99
2018-10-03T00:09:17.757Z,100584.35
2018-10-03T00:11:45.437Z,100584.20
2018-10-03T00:14:12.997Z,100578.00
2018-10-03T00:16:40.632Z,100588.98
2018-10-03T00:19:07.281Z,100585.58
2018-10-03T00:24:00.164Z,100597.06
2018-10-03T00:26:26.833Z,100599.50
2018-10-03T00:28:53.493Z,100596.35
2018-10-03T00:31:20.169Z,100603.27
2018-10-03T00:33:46.839Z,100602.92
2018-10-03T00:36:13.513Z,100606.63
2018-10-03T00:38:40.193Z,100607.58
2018-10-03T00:41:07.986Z,100605.55
2018-10-03T00:43:36.957Z,100601.01
2018-10-03T00:46:04.645Z,100601.81
2018-10-03T00:48:33.248Z,100601.94
2018-10-03T00:51:00.878Z,100603.75
2018-10-03T00:53:28.561Z,100604.59
2018-10-03T00:55:56.245Z,100609.00
2018-10-03T00:58:23.836Z,100612.61
2018-10-03T01:00:51.591Z,100605.36
2018-10-03T01:03:19.046Z,100607.18
2018-10-03T01:05:46.674Z,100604.53
2018-10-03T01:08:14.170Z,100602.37
2018-10-03T01:13:24.872Z,100606.06
2018-10-03T01:15:52.400Z,100601.26
2018-10-03T01:18:20.016Z,100620.01
2018-10-03T01:20:47.615Z,100607.67
2018-10-03T01:23:15.142Z,100614.61
2018-10-03T01:25:42.810Z,100613.35
2018-10-03T01:28:09.477Z,100611.88
2018-10-03T01:30:38.449Z,100613.20
2018-10-03T01:33:07.097Z,100612.61
2018-10-03T01:35:34.589Z,100605.23
2018-10-03T01:38:03.161Z,100602.73
2018-10-03T01:40:30.829Z,100602.30
2018-10-03T01:42:58.416Z,100607.05
2018-10-03T01:45:25.166Z,100593.64
2018-10-03T01:47:52.645Z,100603.51
2018-10-03T01:50:20.260Z,100602.19
2018-10-03T01:52:47.744Z,100613.29
2018-10-03T01:55:15.286Z,100604.06
2018-10-03T01:57:42.822Z,100606.07
2018-10-03T02:00:10.404Z,100609.16
2018-10-03T02:02:38.374Z,100620.60
2018-10-03T02:05:07.053Z,100621.09
2018-10-03T02:07:34.762Z,100627.52
2018-10-03T02:10:03.190Z,100625.81
2018-10-03T02:12:30.749Z,100634.02
2018-10-03T02:14:58.173Z,100632.05
2018-10-03T02:17:25.765Z,100629.52
2018-10-03T02:19:52.448Z,100638.09
2018-10-03T02:22:19.996Z,100640.47
2018-10-03T02:24:46.693Z,100639.98
2018-10-03T02:27:14.392Z,100641.09
2018-10-03T02:29:41.091Z,100636.77
2018-10-03T02:32:08.750Z,100634.40
2018-10-03T02:34:36.432Z,100636.16
2018-10-03T02:37:03.094Z,100636.83
2018-10-03T02:39:29.764Z,100636.83
2018-10-03T02:41:57.354Z,100640.20
2018-10-03T02:44:24.819Z,100640.20
2018-10-03T02:46:52.310Z,100633.84
2018-10-03T02:49:19.832Z,100635.94
2018-10-03T02:51:46.486Z,100639.08
2018-10-03T02:54:13.165Z,100630.72
2018-10-03T02:56:40.769Z,100640.56
2018-10-03T02:59:08.517Z,100642.23
2018-10-03T03:01:37.364Z,100647.20
2018-10-03T03:04:04.976Z,100638.68
2018-10-03T03:06:33.601Z,100642.23
2018-10-03T03:09:00.371Z,100639.91
2018-10-03T03:11:26.992Z,100642.38
2018-10-03T03:13:54.613Z,100651.67
2018-10-03T03:16:22.241Z,100657.59
2018-10-03T03:18:49.790Z,100649.94
2018-10-03T03:21:17.301Z,100650.53
2018-10-03T03:23:45.020Z,100652.08
2018-10-03T03:26:12.633Z,100656.14
2018-10-03T03:28:39.276Z,100651.45
2018-10-03T03:31:07.955Z,100664.44
2018-10-03T03:33:36.409Z,100655.98
2018-10-03T03:36:04.037Z,100659.97
2018-10-03T03:38:31.497Z,100658.30
2018-10-03T03:40:59.100Z,100657.81
2018-10-03T03:43:26.641Z,100660.31
2018-10-03T03:45:53.329Z,100656.48
2018-10-03T03:48:20.813Z,100653.19
2018-10-03T03:50:48.588Z,100667.18
2018-10-03T03:53:16.101Z,100661.30
2018-10-03T03:55:43.665Z,100661.38
2018-10-03T03:58:11.253Z,100660.73
2018-10-03T04:00:38.955Z,100668.91
2018-10-03T04:03:07.401Z,100668.91
2018-10-03T04:05:34.968Z,100662.71
2018-10-03T04:08:02.590Z,100665.61
2018-10-03T04:10:30.085Z,100667.25
2018-10-03T04:12:56.825Z,100664.65
2018-10-03T04:15:23.480Z,100665.53
2018-10-03T04:17:50.997Z,100666.84
2018-10-03T04:20:17.749Z,100677.45
2018-10-03T04:22:45.265Z,100670.67
2018-10-03T04:25:12.726Z,100674.49
2018-10-03T04:27:39.534Z,100667.70
2018-10-03T04:30:07.420Z,100675.89
2018-10-03T04:32:34.097Z,100683.51
2018-10-03T04:35:02.890Z,100682.67
2018-10-03T04:37:30.557Z,100675.05
2018-10-03T04:39:57.228Z,100681.34
2018-10-03T04:42:23.999Z,100679.23
2018-10-03T04:44:51.468Z,100670.42
2018-10-03T04:47:18.981Z,100678.63
2018-10-03T04:49:46.689Z,100684.00
2018-10-03T04:52:13.393Z,100688.88
2018-10-03T04:54:40.120Z,100680.30
2018-10-03T04:57:07.781Z,100681.18
2018-10-03T04:59:35.277Z,100687.27
2018-10-03T05:02:03.150Z,100686.14
2018-10-03T05:04:30.813Z,100698.59
2018-10-03T05:06:57.566Z,100698.27
2018-10-03T05:09:24.209Z,100699.41
2018-10-03T05:11:50.890Z,100710.04
2018-10-03T05:14:17.542Z,100713.31
2018-10-03T05:16:44.198Z,100713.66
2018-10-03T05:19:10.870Z,100714.78
2018-10-03T05:21:38.088Z,100717.66
2018-10-03T05:24:04.790Z,100715.84
2018-10-03T05:26:32.065Z,100716.01
2018-10-03T05:28:58.757Z,100724.56
2018-10-03T05:31:25.448Z,100721.96
2018-10-03T05:33:53.198Z,100729.03
2018-10-03T05:36:19.938Z,100732.57
2018-10-03T05:38:47.674Z,100727.00
2018-10-03T05:41:14.670Z,100726.11
2018-10-03T05:43:42.352Z,100730.55
2018-10-03T05:46:10.014Z,100729.88
2018-10-03T05:48:37.663Z,100717.66
2018-10-03T05:51:06.408Z,100728.04
2018-10-03T05:53:34.073Z,100731.95
2018-10-03T05:56:02.517Z,100732.33
2018-10-03T05:58:30.191Z,100741.23
2018-10-03T06:00:57.657Z,100743.05
2018-10-03T06:03:25.318Z,100761.55
2018-10-03T06:05:52.765Z,100761.09
2018-10-03T06:08:20.465Z,100747.38
2018-10-03T06:10:47.946Z,100754.66
2018-10-03T06:13:15.661Z,100757.03
2018-10-03T06:15:43.461Z,100756.74
2018-10-03T06:18:11.036Z,100763.26
2018-10-03T06:20:38.568Z,100779.22
2018-10-03T06:23:07.496Z,100774.28
2018-10-03T06:25:35.008Z,100779.86
2018-10-03T06:28:02.502Z,100785.73
2018-10-03T06:30:30.176Z,100780.84
2018-10-03T06:32:57.693Z,100783.99
2018-10-03T06:35:25.164Z,100785.81
2018-10-03T06:37:52.831Z,100791.12
2018-10-03T06:40:20.551Z,100808.21
2018-10-03T06:42:48.085Z,100809.39
2018-10-03T06:45:15.825Z,100814.70
2018-10-03T06:47:43.391Z,100801.92
2018-10-03T06:50:10.901Z,100807.50
2018-10-03T06:52:38.481Z,100809.88
2018-10-03T06:55:07.685Z,100812.87
2018-10-03T06:57:35.391Z,100822.58
2018-10-03T07:00:03.051Z,100825.12
2018-10-03T07:02:30.790Z,100827.20
2018-10-03T07:04:58.463Z,100826.30
2018-10-03T07:07:25.193Z,100824.41
2018-10-03T07:09:52.718Z,100842.78
2018-10-03T07:12:19.422Z,100826.45
2018-10-03T07:14:46.892Z,100838.73
2018-10-03T07:17:13.606Z,100842.62
2018-10-03T07:19:41.113Z,100850.73
2018-10-03T07:22:08.769Z,100859.53
2018-10-03T07:24:37.244Z,100859.69
2018-10-03T07:27:04.841Z,100859.88
2018-10-03T07:29:32.614Z,100874.23
2018-10-03T07:32:00.221Z,100876.66
2018-10-03T07:34:27.953Z,100880.76
2018-10-03T07:36:55.553Z,100884.03
2018-10-03T07:39:23.301Z,100881.18
2018-10-03T07:41:50.900Z,100893.81
2018-10-03T07:44:18.616Z,100906.66
2018-10-03T07:46:46.293Z,100894.94
2018-10-03T07:49:13.919Z,100903.16
2018-10-03T07:51:41.688Z,100911.70
2018-10-03T07:54:09.212Z,100896.33
2018-10-03T07:56:37.960Z,100914.95
2018-10-03T07:59:06.637Z,100918.12
2018-10-03T08:01:34.144Z,100925.11
2018-10-03T08:04:02.716Z,100910.11
2018-10-03T08:06:30.402Z,100921.55
2018-10-03T08:08:58.082Z,100913.37
2018-10-03T08:11:25.736Z,100925.13
2018-10-03T08:13:52.377Z,100928.74
2018-10-03T08:16:20.040Z,100931.25
2018-10-03T08:18:46.729Z,100939.30
2018-10-03T08:21:13.413Z,100932.37
2018-10-03T08:23:40.081Z,100941.25
2018-10-03T08:26:07.866Z,100948.30
2018-10-03T08:28:34.507Z,100940.67
2018-10-03T08:31:01.233Z,100946.36
2018-10-03T08:35:55.826Z,100968.11
2018-10-03T08:38:22.489Z,100950.69
2018-10-03T08:40:50.158Z,100972.81
2018-10-03T08:43:16.812Z,100962.55
2018-10-03T08:45:43.555Z,100969.58
2018-10-03T08:48:10.172Z,100965.88
2018-10-03T08:50:37.156Z,100972.11
2018-10-03T08:53:04.286Z,100979.16
2018-10-03T08:55:32.657Z,100976.81
2018-10-03T08:58:00.329Z,100986.71
2018-10-03T09:00:27.842Z,100994.47
2018-10-03T09:02:55.413Z,100991.50
2018-10-03T09:05:23.055Z,101001.45
2018-10-03T09:07:50.743Z,101003.77
2018-10-03T09:10:18.337Z,101005.52
2018-10-03T09:12:45.809Z,101010.57
2018-10-03T09:15:13.301Z,101016.08
2018-10-03T09:17:40.025Z,101036.39
2018-10-03T09:20:07.640Z,101026.67
2018-10-03T09:22:35.233Z,101030.44
2018-10-03T09:25:04.481Z,101038.47
2018-10-03T09:27:33.038Z,101044.20
2018-10-03T09:30:00.598Z,101051.10
2018-10-03T09:32:28.077Z,101042.50
2018-10-03T09:34:55.718Z,101056.03
2018-10-03T09:37:23.161Z,101056.67
2018-10-03T09:39:50.870Z,101063.94
2018-10-03T09:42:18.528Z,101073.73
2018-10-03T09:44:45.218Z,101066.02
2018-10-03T09:47:12.703Z,101070.31
2018-10-03T09:49:40.389Z,101073.03
2018-10-03T09:52:08.713Z,101076.58
2018-10-03T09:54:37.129Z,101083.38
2018-10-03T09:57:04.780Z,101087.36
2018-10-03T09:59:32.448Z,101092.96
2018-10-03T10:01:59.157Z,101096.11
2018-10-03T10:04:26.670Z,101100.41
2018-10-03T10:06:54.432Z,101108.47
2018-10-03T10:09:21.958Z,101104.88
2018-10-03T10:11:48.791Z,101120.67
2018-10-03T10:14:16.237Z,101124.80
2018-10-03T10:16:43.961Z,101127.54
2018-10-03T10:19:11.502Z,101141.67
2018-10-03T10:21:39.132Z,101147.36
2018-10-03T10:24:07.734Z,101146.33
2018-10-03T10:26:35.986Z,101146.19
2018-10-03T10:29:03.483Z,101151.41
2018-10-03T10:31:31.100Z,101152.57
2018-10-03T10:33:58.621Z,101155.97
2018-10-03T10:36:26.103Z,101156.41
2018-10-03T10:38:53.574Z,101161.92
2018-10-03T10:41:21.040Z,101158.09
2018-10-03T10:43:48.428Z,101157.98
2018-10-03T10:46:16.021Z,101157.30
2018-10-03T10:48:43.657Z,101153.06
2018-10-03T10:51:11.339Z,101144.95
2018-10-03T10:53:39.049Z,101157.39
2018-10-03T10:56:07.459Z,101165.40
2018-10-03T10:58:34.169Z,101160.00
2018-10-03T11:01:02.937Z,101155.39
2018-10-03T11:03:30.604Z,101167.38
2018-10-03T11:05:57.272Z,101164.47
2018-10-03T11:08:23.920Z,101159.30
2018-10-03T11:10:50.552Z,101166.14
2018-10-03T11:13:17.197Z,101179.42
2018-10-03T11:15:43.883Z,101189.83
2018-10-03T11:18:10.525Z,101203.00
2018-10-03T11:20:37.677Z,101201.73
2018-10-03T11:23:05.370Z,101202.56
2018-10-03T11:28:02.696Z,101210.67
2018-10-03T11:30:30.329Z,101206.55
2018-10-03T11:32:58.008Z,101216.22
2018-10-03T11:35:25.549Z,101216.33
2018-10-03T11:37:53.013Z,101218.73
2018-10-03T11:40:20.590Z,101231.86
2018-10-03T11:42:47.724Z,101232.35
2018-10-03T11:45:15.229Z,101241.05
2018-10-03T11:47:42.669Z,101258.58
2018-10-03T11:50:09.318Z,101261.05
2018-10-03T11:52:38.313Z,101263.64
2018-10-03T11:55:06.713Z,101283.30
2018-10-03T11:57:34.357Z,101243.70
2018-10-03T12:02:29.864Z,101260.36
2018-10-03T12:07:24.429Z,101269.76
2018-10-03T12:09:51.938Z,101273.17
2018-10-03T12:14:46.712Z,101277.33
2018-10-03T12:17:14.456Z,101275.69
2018-10-03T12:19:42.149Z,101268.11
2018-10-03T12:22:09.638Z,101269.44
2018-10-03T12:24:36.961Z,101267.97
2018-10-03T12:27:03.734Z,101270.84
2018-10-03T12:29:31.382Z,101275.55
2018-10-03T12:31:59.721Z,101270.70
2018-10-03T12:36:54.349Z,101284.07
2018-10-03T12:39:21.877Z,101287.00
2018-10-03T12:41:48.576Z,101283.55
2018-10-03T12:44:16.092Z,101278.45
2018-10-03T12:46:43.740Z,101292.56
2018-10-03T12:49:10.865Z,101282.19
2018-10-03T12:51:38.498Z,101296.36
2018-10-03T12:54:05.189Z,101294.41
2018-10-03T12:56:33.717Z,101304.54
2018-10-03T12:59:00.425Z,101310.19
2018-10-03T13:01:27.945Z,101309.08
2018-10-03T13:03:55.658Z,101302.58
2018-10-03T13:06:23.425Z,101308.34
2018-10-03T13:08:50.904Z,101310.99
2018-10-03T13:11:18.444Z,101312.50
2018-10-03T13:13:46.044Z,101313.72
2018-10-03T13:16:13.760Z,101308.37
2018-10-03T13:18:41.231Z,101307.41
2018-10-03T13:21:08.965Z,101312.64
2018-10-03T13:23:37.533Z,101318.30
2018-10-03T13:26:05.240Z,101314.45
2018-10-03T13:28:33.735Z,101317.42
2018-10-03T13:31:01.518Z,101310.47
2018-10-03T13:33:28.846Z,101322.88
2018-10-03T13:35:56.284Z,101319.73
2018-10-03T13:38:23.861Z,101334.13
2018-10-03T13:40:51.567Z,101336.78
2018-10-03T13:43:19.098Z,101341.36
2018-10-03T13:45:46.573Z,101348.38
2018-10-03T13:48:14.126Z,101340.52
2018-10-03T13:50:41.597Z,101350.78
2018-10-03T13:53:09.221Z,101352.46
2018-10-03T13:55:38.745Z,101344.25
2018-10-03T13:58:07.501Z,101348.91
2018-10-03T14:00:35.117Z,101365.59
2018-10-03T14:03:03.637Z,101363.54
2018-10-03T14:05:30.318Z,101376.11
2018-10-03T14:07:56.981Z,101376.71
2018-10-03T14:10:24.681Z,101375.73
2018-10-03T14:12:52.260Z,101376.95
2018-10-03T14:15:19.944Z,101381.77
2018-10-03T14:17:47.451Z,101386.00
2018-10-03T14:20:14.913Z,101396.16
2018-10-03T14:22:42.578Z,101398.48
2018-10-03T14:25:10.165Z,101398.81
2018-10-03T14:27:39.002Z,101402.06
2018-10-03T14:30:07.630Z,101403.39
2018-10-03T14:32:35.330Z,101413.55
2018-10-03T14:35:02.462Z,101410.98
2018-10-03T14:37:29.107Z,101422.81
2018-10-03T14:39:56.667Z,101415.34
2018-10-03T14:42:23.266Z,101421.59
2018-10-03T14:44:50.856Z,101428.86
2018-10-03T14:47:18.491Z,101429.45
2018-10-03T14:49:45.145Z,101432.11
2018-10-03T14:52:11.850Z,101432.59
2018-10-03T14:54:38.497Z,101437.17
2018-10-03T14:57:05.169Z,101442.02
2018-10-03T14:59:32.964Z,101449.52
2018-10-03T15:01:59.618Z,101449.25
2018-10-03T15:04:26.277Z,101449.85
2018-10-03T15:06:53.022Z,101467.24
2018-10-03T15:09:20.594Z,101468.44
2018-10-03T15:11:48.301Z,101464.20
2018-10-03T15:14:15.062Z,101464.47
2018-10-03T15:16:42.783Z,101476.06
2018-10-03T15:19:10.480Z,101473.28
2018-10-03T15:21:38.760Z,101471.11
2018-10-03T15:24:06.151Z,101479.30
2018-10-03T15:26:33.638Z,101474.47
2018-10-03T15:29:01.224Z,101482.69
2018-10-03T15:31:28.770Z,101490.17
2018-10-03T15:33:56.597Z,101487.52
2018-10-03T15:36:23.348Z,101483.78
2018-10-03T15:38:51.033Z,101493.44
2018-10-03T15:41:18.522Z,101494.65
2018-10-03T15:43:46.099Z,101506.33
2018-10-03T15:46:13.773Z,101514.80
2018-10-03T15:48:41.409Z,101515.62
2018-10-03T15:51:09.122Z,101515.88
2018-10-03T15:53:38.022Z,101508.26
2018-10-03T15:56:06.867Z,101516.47
2018-10-03T15:58:34.485Z,101524.08
2018-10-03T16:01:02.058Z,101529.61
2018-10-03T16:03:29.664Z,101525.06
2018-10-03T16:05:57.292Z,101524.08
2018-10-03T16:08:25.120Z,101532.03
2018-10-03T16:10:51.787Z,101535.42
2018-10-03T16:13:18.525Z,101539.66
2018-10-03T16:15:45.178Z,101542.31
2018-10-03T16:18:12.804Z,101549.91
2018-10-03T16:20:39.460Z,101551.11
2018-10-03T16:23:08.621Z,101555.33
2018-10-03T16:25:37.038Z,101552.44
2018-10-03T16:28:04.747Z,101555.95
2018-10-03T16:30:31.456Z,101560.64
2018-10-03T16:32:58.157Z,101561.71
2018-10-03T16:35:25.809Z,101570.06
2018-10-03T16:37:53.316Z,101573.41
2018-10-03T16:40:20.965Z,101574.64
2018-10-03T16:42:48.665Z,101585.00
2018-10-03T16:45:16.257Z,101586.81
2018-10-03T16:47:43.726Z,101591.17
2018-10-03T16:50:11.464Z,101597.43
2018-10-03T16:52:39.110Z,101593.22
2018-10-03T16:55:08.173Z,101608.53
2018-10-03T16:57:36.608Z,101604.68
2018-10-03T17:00:07.021Z,101603.71
2018-10-03T17:02:34.680Z,101596.36
2018-10-03T17:05:03.910Z,101606.48
2018-10-03T17:07:31.394Z,101615.79
2018-10-03T17:09:58.159Z,101616.50
2018-10-03T17:12:25.597Z,101613.13
2018-10-03T17:14:53.301Z,101618.90
2018-10-03T17:17:20.906Z,101621.43
2018-10-03T17:19:48.482Z,101620.48
2018-10-03T17:22:16.109Z,101630.26
2018-10-03T17:24:42.768Z,101629.16
2018-10-03T17:27:10.313Z,101634.59
2018-10-03T17:29:37.825Z,101629.28
2018-10-03T17:32:06.950Z,101636.19
2018-10-03T17:34:33.604Z,101639.33
2018-10-03T17:37:00.268Z,101641.85
2018-10-03T17:39:28.159Z,101643.05
2018-10-03T17:41:55.697Z,101640.63
2018-10-03T17:44:23.773Z,101648.84
2018-10-03T17:46:52.901Z,101646.91
2018-10-03T17:49:20.343Z,101649.58
2018-10-03T17:51:46.989Z,101656.33
2018-10-03T17:54:14.537Z,101658.36
2018-10-03T17:56:42.202Z,101666.45
2018-10-03T17:59:10.431Z,101657.42
2018-10-03T18:01:44.696Z,101673.22
2018-10-03T18:04:11.357Z,101675.13
2018-10-03T18:06:38.057Z,101673.80
2018-10-03T18:09:06.868Z,101678.40
2018-10-03T18:11:33.581Z,101683.58
2018-10-03T18:14:00.265Z,101687.69
2018-10-03T18:16:26.921Z,101687.33
2018-10-03T18:18:53.589Z,101691.31
2018-10-03T18:21:20.265Z,101693.23
2018-10-03T18:23:46.938Z,101696.85
2018-10-03T18:26:13.617Z,101711.71
2018-10-03T18:31:07.252Z,101713.88
2018-10-03T18:33:34.893Z,101720.61
2018-10-03T18:36:03.401Z,101718.20
2018-10-03T18:38:30.953Z,101719.19
2018-10-03T18:40:58.633Z,101724.95
2018-10-03T18:43:25.370Z,101725.69
2018-10-03T18:45:53.090Z,101730.03
2018-10-03T18:48:19.758Z,101734.50
2018-10-03T18:50:47.592Z,101739.55
2018-10-03T18:53:14.265Z,101738.95
2018-10-03T18:55:41.889Z,101737.16
2018-10-03T18:58:09.492Z,101748.11
2018-10-03T19:00:37.203Z,101746.58
2018-10-03T19:03:04.891Z,101748.26
2018-10-03T19:05:33.460Z,101743.92
2018-10-03T19:08:00.965Z,101752.23
2018-10-03T19:10:27.685Z,101744.28
2018-10-03T19:12:55.306Z,101753.30
2018-10-03T19:15:23.106Z,101748.73
2018-10-03T19:17:49.817Z,101754.05
2018-10-03T19:20:17.553Z,101755.03
2018-10-03T19:22:44.980Z,101760.55
2018-10-03T19:25:12.625Z,101772.98
2018-10-03T19:27:40.285Z,101776.60
2018-10-03T19:30:07.909Z,101780.23
2018-10-03T19:32:36.943Z,101779.13
2018-10-03T19:35:03.662Z,101791.30
2018-10-03T19:39:58.317Z,101790.59
2018-10-03T19:42:25.981Z,101791.30
2018-10-03T19:44:52.906Z,101796.88
2018-10-03T19:47:20.581Z,101795.05
2018-10-03T19:49:48.159Z,101796.59
2018-10-03T19:52:15.633Z,101801.43
2018-10-03T19:54:42.311Z,101795.55
2018-10-03T19:57:08.996Z,101795.89
2018-10-03T20:02:03.779Z,101807.64
2018-10-03T20:04:31.246Z,101814.27
2018-10-03T20:06:57.916Z,101816.52
2018-10-03T20:09:24.609Z,101819.45
2018-10-03T20:11:51.315Z,101808.06
2018-10-03T20:14:18.914Z,101826.64
2018-10-03T20:16:46.639Z,101824.47
2018-10-03T20:19:14.249Z,101829.50
2018-10-03T20:21:41.884Z,101830.91
2018-10-03T20:24:09.438Z,101835.94
2018-10-03T20:26:37.219Z,101836.06
2018-10-03T20:29:04.800Z,101832.22
2018-10-03T20:31:33.433Z,101834.38
2018-10-03T20:34:01.007Z,101840.41
2018-10-03T20:36:27.681Z,101841.65
2018-10-03T20:38:54.378Z,101837.91
2018-10-03T20:41:21.977Z,101833.20
2018-10-03T20:43:49.610Z,101837.31
2018-10-03T20:46:16.280Z,101837.05
2018-10-03T20:48:43.829Z,101841.18
2018-10-03T20:51:11.478Z,101838.03
2018-10-03T20:53:39.024Z,101842.23
2018-10-03T20:56:07.669Z,101846.55
2018-10-03T21:01:03.497Z,101858.40
2018-10-03T21:03:31.009Z,101860.30
2018-10-03T21:05:58.641Z,101856.23
2018-10-03T21:08:26.259Z,101858.49
2018-10-03T21:10:53.765Z,101861.34
2018-10-03T21:13:21.444Z,101858.01
2018-10-03T21:15:49.110Z,101858.13
2018-10-03T21:18:16.714Z,101860.81
2018-10-03T21:20:44.337Z,101858.98
2018-10-03T21:23:12.000Z,101854.28
2018-10-03T21:25:38.692Z,101863.55
2018-10-03T21:28:06.848Z,101870.20
2018-10-03T21:30:34.361Z,101875.60
2018-10-03T21:33:03.017Z,101877.89
2018-10-03T21:35:30.703Z,101877.17
2018-10-03T21:37:58.332Z,101878.16
2018-10-03T21:40:26.010Z,101875.84
2018-10-03T21:42:53.629Z,101876.81
2018-10-03T21:45:23.149Z,101880.82
2018-10-03T21:47:49.861Z,101876.88
2018-10-03T21:50:17.401Z,101878.03
2018-10-03T21:52:44.092Z,101870.00
2018-10-03T21:55:10.824Z,101868.97
2018-10-03T21:57:37.497Z,101872.71
2018-10-03T22:00:05.145Z,101874.88
2018-10-03T22:02:36.766Z,101869.61
2018-10-03T22:05:07.113Z,101869.09
2018-10-03T22:07:34.218Z,101864.75
2018-10-03T22:10:00.870Z,101864.00
2018-10-03T22:12:27.548Z,101873.14
2018-10-03T22:14:54.209Z,101874.47
2018-10-03T22:17:24.127Z,101878.69
2018-10-03T22:19:50.986Z,101875.31
2018-10-03T22:22:17.664Z,101870.54
2018-10-03T22:24:44.328Z,101873.43
2018-10-03T22:27:11.019Z,101876.84
2018-10-03T22:29:38.014Z,101874.47
2018-10-03T22:32:04.697Z,101871.05
2018-10-03T22:34:31.389Z,101865.47
2018-10-03T22:36:58.042Z,101867.44
2018-10-03T22:39:24.696Z,101866.38
2018-10-03T22:41:51.329Z,101858.42
2018-10-03T22:44:18.037Z,101857.45
2018-10-03T22:46:44.745Z,101864.00
2018-10-03T22:49:11.405Z,101863.73
2018-10-03T22:51:38.272Z,101863.55
2018-10-03T22:54:04.953Z,101864.91
2018-10-03T22:56:31.651Z,101871.69
2018-10-03T22:58:59.237Z,101868.89
2018-10-03T23:01:27.169Z,101868.05
2018-10-03T23:03:54.855Z,101873.75
2018-10-03T23:06:22.366Z,101876.08
2018-10-03T23:08:49.969Z,101879.57
2018-10-03T23:11:17.425Z,101879.33
2018-10-03T23:13:44.138Z,101887.17
2018-10-03T23:16:11.725Z,101885.84
2018-10-03T23:18:38.428Z,101894.98
2018-10-03T23:21:05.366Z,101892.39
2018-10-03T23:23:33.215Z,101895.97
2018-10-03T23:26:00.776Z,101895.28
2018-10-03T23:28:28.354Z,101895.61
2018-10-03T23:30:55.945Z,101897.63
2018-10-03T23:33:22.612Z,101896.16
2018-10-03T23:35:49.253Z,101890.84
2018-10-03T23:38:16.865Z,101892.72
2018-10-03T23:40:44.383Z,101897.15
2018-10-03T23:43:12.041Z,101896.31
2018-10-03T23:45:39.625Z,101902.22
2018-10-03T23:48:07.572Z,101903.06
2018-10-03T23:50:35.187Z,101908.81
2018-10-03T23:53:02.892Z,101910.39
2018-10-03T23:55:30.394Z,101916.30
2018-10-03T23:57:57.973Z,101918.19
